Time;durP1;ratioP1;P1;durP2;ratioP2;P2;SDS_P1;SDS_P2;PMS_P1;PMS_P2;Temp;Humidity;BMP_temperature;BMP_pressure;BME280_temperature;BME280_humidity;BME280_pressure;Samples;Min_cycle;Max_cycle;Signal;HPM_P1;HPM_P2
2022/07/14 00:01:22;;;;;;;7.40;3.47;;;;;;;;;;5052106;28;20423;-75
2022/07/14 00:03:48;;;;;;;8.33;3.17;;;;;;;;;;5051728;28;20867;-75
2022/07/14 00:06:14;;;;;;;6.67;2.97;;;;;;;;;;5051834;28;20452;-77
2022/07/14 00:08:43;;;;;;;5.40;3.20;;;;;;;;;;5051877;28;20428;-75
2022/07/14 00:11:09;;;;;;;7.10;2.43;;;;;;;;;;5051899;28;20421;-75
2022/07/14 00:13:35;;;;;;;6.70;3.20;;;;;;;;;;5051310;28;20434;-75
2022/07/14 00:16:01;;;;;;;7.50;4.40;;;;;;;;;;5050410;28;20550;-75
2022/07/14 00:18:27;;;;;;;8.47;2.90;;;;;;;;;;5051528;28;20419;-75
2022/07/14 00:20:53;;;;;;;11.53;3.83;;;;;;;;;;5051678;28;20420;-75
2022/07/14 00:23:21;;;;;;;4.53;3.17;;;;;;;;;;5050985;28;20732;-75
2022/07/14 00:25:47;;;;;;;6.00;2.90;;;;;;;;;;5051469;28;20509;-75
2022/07/14 00:28:13;;;;;;;8.70;3.10;;;;;;;;;;5051519;28;20495;-75
2022/07/14 00:30:39;;;;;;;8.50;3.57;;;;;;;;;;5051771;28;20435;-75
2022/07/14 00:33:05;;;;;;;12.77;3.90;;;;;;;;;;5051102;28;20440;-75
2022/07/14 00:35:31;;;;;;;10.10;3.20;;;;;;;;;;5050096;28;20441;-75
2022/07/14 00:37:57;;;;;;;7.57;3.73;;;;;;;;;;5051553;28;20549;-75
2022/07/14 00:40:23;;;;;;;5.77;3.13;;;;;;;;;;5051425;28;20408;-75
2022/07/14 00:42:51;;;;;;;11.07;3.73;;;;;;;;;;5051334;28;20741;-75
2022/07/14 00:45:18;;;;;;;8.73;3.90;;;;;;;;;;5051166;28;20456;-76
2022/07/14 00:47:46;;;;;;;11.63;4.67;;;;;;;;;;5051210;28;20400;-76
2022/07/14 00:50:13;;;;;;;14.10;4.37;;;;;;;;;;5050393;28;20785;-75
2022/07/14 00:52:39;;;;;;;7.30;3.70;;;;;;;;;;5051260;28;20486;-75
2022/07/14 00:55:05;;;;;;;12.93;4.73;;;;;;;;;;5050789;28;20429;-75
2022/07/14 00:57:31;;;;;;;15.80;4.10;;;;;;;;;;5051190;28;20474;-75
2022/07/14 00:59:57;;;;;;;8.03;4.17;;;;;;;;;;5051049;28;20474;-75
2022/07/14 01:02:24;;;;;;;9.93;3.97;;;;;;;;;;5051165;28;20444;-75
2022/07/14 01:04:50;;;;;;;9.57;3.83;;;;;;;;;;5049362;28;20396;-75
2022/07/14 01:07:17;;;;;;;10.30;4.10;;;;;;;;;;5050815;28;20412;-75
2022/07/14 01:09:44;;;;;;;9.17;3.67;;;;;;;;;;5050674;28;20388;-75
2022/07/14 01:12:10;;;;;;;7.57;4.33;;;;;;;;;;5050765;28;21051;-75
2022/07/14 01:14:36;;;;;;;11.50;4.03;;;;;;;;;;5049357;28;20387;-75
2022/07/14 01:17:03;;;;;;;11.63;4.40;;;;;;;;;;5050645;28;20468;-75
2022/07/14 01:19:29;;;;;;;10.60;4.13;;;;;;;;;;5050640;28;20419;-77
2022/07/14 01:21:56;;;;;;;7.50;3.23;;;;;;;;;;5050576;28;20408;-75
2022/07/14 01:24:24;;;;;;;9.90;4.20;;;;;;;;;;5050252;28;20408;-75
2022/07/14 01:26:51;;;;;;;10.60;4.40;;;;;;;;;;5050668;28;20850;-75
2022/07/14 01:29:17;;;;;;;9.03;3.67;;;;;;;;;;5050495;28;20391;-75
2022/07/14 01:31:43;;;;;;;7.47;3.27;;;;;;;;;;5050333;28;20419;-75
2022/07/14 01:34:09;;;;;;;12.40;5.53;;;;;;;;;;5050072;28;20419;-75
2022/07/14 01:36:35;;;;;;;14.93;4.50;;;;;;;;;;5050185;28;20824;-75
2022/07/14 01:39:03;;;;;;;10.20;4.60;;;;;;;;;;5050700;28;20527;-75
2022/07/14 01:41:29;;;;;;;13.67;4.60;;;;;;;;;;5049503;28;20376;-75
2022/07/14 01:43:56;;;;;;;9.80;4.17;;;;;;;;;;5050074;28;20741;-76
2022/07/14 01:46:22;;;;;;;11.60;4.23;;;;;;;;;;5050255;28;20515;-75
2022/07/14 01:48:48;;;;;;;9.40;4.57;;;;;;;;;;5050384;28;20408;-75
2022/07/14 01:51:14;;;;;;;7.30;4.50;;;;;;;;;;5050419;28;20416;-76
2022/07/14 01:53:41;;;;;;;17.60;5.90;;;;;;;;;;5049852;28;20437;-75
2022/07/14 01:56:07;;;;;;;12.07;4.97;;;;;;;;;;5049971;28;20446;-75
2022/07/14 01:58:33;;;;;;;13.03;4.80;;;;;;;;;;5049964;28;20391;-75
2022/07/14 02:03:45;;;;;;;11.40;5.33;;;;;;;;;;5050228;28;20899;-75
2022/07/14 02:06:11;;;;;;;14.90;5.40;;;;;;;;;;5050016;28;20431;-75
2022/07/14 02:08:37;;;;;;;12.33;5.80;;;;;;;;;;5050374;28;20391;-75
2022/07/14 02:13:48;;;;;;;11.83;4.60;;;;;;;;;;5049822;28;20412;-75
2022/07/14 02:16:14;;;;;;;13.83;4.90;;;;;;;;;;5048532;28;20970;-75
2022/07/14 02:18:40;;;;;;;13.40;4.90;;;;;;;;;;5050189;28;20408;-75
2022/07/14 02:21:06;;;;;;;15.10;5.97;;;;;;;;;;5050007;28;20404;-75
2022/07/14 02:23:32;;;;;;;19.40;4.80;;;;;;;;;;5049463;28;20830;-75
2022/07/14 02:25:58;;;;;;;13.20;5.30;;;;;;;;;;5049665;28;20493;-76
2022/07/14 02:28:25;;;;;;;18.10;5.30;;;;;;;;;;5049669;28;20446;-75
2022/07/14 02:30:51;;;;;;;12.37;4.73;;;;;;;;;;5048576;28;20391;-75
2022/07/14 02:33:17;;;;;;;10.50;4.97;;;;;;;;;;5049545;28;20459;-75
2022/07/14 02:35:44;;;;;;;10.20;4.27;;;;;;;;;;5049634;28;20432;-75
2022/07/14 02:38:10;;;;;;;14.37;4.90;;;;;;;;;;5049664;28;20427;-75
2022/07/14 02:40:36;;;;;;;8.20;4.10;;;;;;;;;;5049821;28;20407;-75
2022/07/14 02:43:02;;;;;;;13.30;5.03;;;;;;;;;;5049705;28;20413;-75
2022/07/14 02:45:28;;;;;;;9.47;4.30;;;;;;;;;;5049801;28;20757;-75
2022/07/14 02:47:54;;;;;;;17.07;5.17;;;;;;;;;;5049523;28;20401;-75
2022/07/14 02:50:20;;;;;;;14.93;5.20;;;;;;;;;;5049451;28;20400;-75
2022/07/14 02:52:46;;;;;;;11.10;4.60;;;;;;;;;;5049487;28;20767;-75
2022/07/14 02:55:12;;;;;;;19.60;4.80;;;;;;;;;;5049199;28;20399;-75
2022/07/14 02:57:38;;;;;;;16.90;4.80;;;;;;;;;;5049685;28;20551;-75
2022/07/14 03:00:06;;;;;;;11.70;4.47;;;;;;;;;;5049593;28;20420;-75
2022/07/14 03:02:32;;;;;;;17.07;5.07;;;;;;;;;;5049489;28;20400;-75
2022/07/14 03:04:58;;;;;;;11.53;4.37;;;;;;;;;;5048987;28;20416;-75
2022/07/14 03:07:24;;;;;;;15.43;5.50;;;;;;;;;;5049262;28;20387;-75
2022/07/14 03:09:50;;;;;;;17.63;5.00;;;;;;;;;;5049351;28;20489;-76
2022/07/14 03:12:17;;;;;;;11.30;4.40;;;;;;;;;;5049100;28;20988;-75
2022/07/14 03:14:44;;;;;;;14.13;4.90;;;;;;;;;;5050039;28;20791;-75
2022/07/14 03:17:10;;;;;;;9.90;4.80;;;;;;;;;;5052550;28;20436;-75
2022/07/14 03:19:36;;;;;;;20.57;5.90;;;;;;;;;;5052457;28;20409;-75
2022/07/14 03:22:02;;;;;;;9.20;3.97;;;;;;;;;;5052509;28;20459;-75
2022/07/14 03:24:28;;;;;;;13.13;4.57;;;;;;;;;;5052016;28;20418;-75
2022/07/14 03:26:54;;;;;;;13.70;4.83;;;;;;;;;;5052259;28;20435;-75
2022/07/14 03:29:22;;;;;;;9.77;4.13;;;;;;;;;;5052622;28;20883;-75
2022/07/14 03:31:48;;;;;;;14.73;6.60;;;;;;;;;;5052204;28;20444;-75
2022/07/14 03:34:14;;;;;;;11.63;4.87;;;;;;;;;;5051904;28;20458;-76
2022/07/14 03:36:40;;;;;;;11.57;4.10;;;;;;;;;;5052127;28;20482;-75
2022/07/14 03:39:06;;;;;;;11.23;4.10;;;;;;;;;;5052210;28;20413;-75
2022/07/14 03:41:32;;;;;;;9.57;4.20;;;;;;;;;;5052193;28;20382;-75
2022/07/14 03:43:58;;;;;;;11.40;4.27;;;;;;;;;;5050855;28;20484;-75
2022/07/14 03:46:24;;;;;;;11.30;4.40;;;;;;;;;;5052280;28;20984;-75
2022/07/14 03:48:51;;;;;;;11.83;4.87;;;;;;;;;;5052085;28;20417;-75
2022/07/14 03:51:17;;;;;;;12.67;3.80;;;;;;;;;;5050816;28;20420;-75
2022/07/14 03:53:43;;;;;;;9.90;3.90;;;;;;;;;;5052102;28;20755;-75
2022/07/14 03:56:09;;;;;;;10.43;4.57;;;;;;;;;;5052057;28;20467;-75
2022/07/14 03:58:35;;;;;;;16.50;4.27;;;;;;;;;;5052119;28;20409;-75
2022/07/14 04:01:02;;;;;;;15.87;4.83;;;;;;;;;;5051991;28;20451;-75
2022/07/14 04:03:28;;;;;;;9.07;4.20;;;;;;;;;;5051520;28;20514;-75
2022/07/14 04:05:54;;;;;;;13.30;3.93;;;;;;;;;;5051909;28;20411;-75
2022/07/14 04:08:20;;;;;;;10.40;4.33;;;;;;;;;;5051807;28;20725;-75
2022/07/14 04:10:46;;;;;;;12.93;4.37;;;;;;;;;;5051862;28;20405;-76
2022/07/14 04:13:12;;;;;;;14.30;5.47;;;;;;;;;;5051381;28;20383;-75
2022/07/14 04:15:39;;;;;;;15.30;4.97;;;;;;;;;;5051639;28;20443;-75
2022/07/14 04:18:05;;;;;;;16.20;4.60;;;;;;;;;;5051767;28;20861;-75
2022/07/14 04:20:31;;;;;;;12.80;4.60;;;;;;;;;;5051620;28;20436;-75
2022/07/14 04:22:57;;;;;;;14.73;5.67;;;;;;;;;;5051210;28;20379;-75
2022/07/14 04:25:23;;;;;;;11.67;5.43;;;;;;;;;;5050057;28;20439;-75
2022/07/14 04:27:49;;;;;;;13.50;5.43;;;;;;;;;;5051570;28;20413;-75
2022/07/14 04:30:15;;;;;;;17.03;5.53;;;;;;;;;;5050042;28;20421;-75
2022/07/14 04:32:41;;;;;;;12.87;5.50;;;;;;;;;;5051490;28;20437;-75
2022/07/14 04:35:07;;;;;;;19.07;5.73;;;;;;;;;;5050880;28;20442;-75
2022/07/14 04:37:34;;;;;;;19.33;5.80;;;;;;;;;;5051486;28;20513;-75
2022/07/14 04:40:00;;;;;;;17.93;6.20;;;;;;;;;;5051319;28;20380;-75
2022/07/14 04:42:26;;;;;;;13.90;5.30;;;;;;;;;;5051291;28;20386;-75
2022/07/14 04:44:53;;;;;;;19.30;6.30;;;;;;;;;;5050862;28;20504;-76
2022/07/14 04:47:19;;;;;;;20.50;6.30;;;;;;;;;;5051105;28;20420;-76
2022/07/14 04:52:29;;;;;;;15.90;6.23;;;;;;;;;;5050408;28;20432;-76
2022/07/14 04:54:55;;;;;;;14.10;5.47;;;;;;;;;;5050747;28;20839;-76
2022/07/14 04:57:21;;;;;;;19.63;7.60;;;;;;;;;;5050696;28;20559;-75
2022/07/14 04:59:47;;;;;;;15.10;6.07;;;;;;;;;;5050894;28;20790;-75
2022/07/14 05:02:13;;;;;;;18.73;6.80;;;;;;;;;;5051107;28;20420;-75
2022/07/14 05:04:39;;;;;;;20.70;7.30;;;;;;;;;;5050727;28;20782;-75
2022/07/14 05:07:06;;;;;;;10.63;5.30;;;;;;;;;;5050879;28;20426;-75
2022/07/14 05:09:33;;;;;;;23.30;6.53;;;;;;;;;;5050965;28;20420;-76
2022/07/14 05:12:01;;;;;;;15.77;6.33;;;;;;;;;;5051011;28;20412;-75
2022/07/14 05:14:29;;;;;;;11.47;6.40;;;;;;;;;;5050499;28;20387;-75
2022/07/14 05:16:55;;;;;;;17.40;5.60;;;;;;;;;;5050797;28;20464;-76
2022/07/14 05:19:21;;;;;;;15.07;5.80;;;;;;;;;;5050790;28;20437;-76
2022/07/14 05:21:47;;;;;;;18.90;5.87;;;;;;;;;;5050654;28;20390;-75
2022/07/14 05:24:13;;;;;;;18.73;5.87;;;;;;;;;;5050233;28;20383;-74
2022/07/14 05:26:40;;;;;;;24.27;6.40;;;;;;;;;;5050483;28;20866;-74
2022/07/14 05:29:06;;;;;;;16.67;6.20;;;;;;;;;;5050502;28;20475;-74
2022/07/14 05:31:32;;;;;;;20.80;6.47;;;;;;;;;;5050302;28;20402;-74
2022/07/14 10:53:08;;;;;;;6.87;2.50;;;;;;;;;;6039915;22;1258740;-75
2022/07/14 10:55:34;;;;;;;4.70;1.80;;;;;;;;;;4954329;28;20768;-75
2022/07/14 10:58:00;;;;;;;6.73;2.27;;;;;;;;;;4967360;28;20408;-74
2022/07/14 11:00:44;;;;;;;5.33;1.97;;;;;;;;;;4971197;28;20405;-74
2022/07/14 11:03:22;;;;;;;6.10;2.17;;;;;;;;;;4970768;28;20468;-74
2022/07/14 11:06:05;;;;;;;3.97;1.57;;;;;;;;;;4971491;28;20408;-74
2022/07/14 11:08:31;;;;;;;7.87;2.33;;;;;;;;;;4971327;28;20409;-74
2022/07/14 11:10:58;;;;;;;3.93;2.10;;;;;;;;;;4971292;28;20447;-74
2022/07/14 11:13:24;;;;;;;9.97;2.23;;;;;;;;;;4970909;28;20515;-74
2022/07/14 11:15:50;;;;;;;4.90;2.10;;;;;;;;;;4971150;28;20431;-75
2022/07/14 11:18:24;;;;;;;4.23;1.80;;;;;;;;;;4971153;28;20495;-74
2022/07/14 11:20:51;;;;;;;8.20;2.13;;;;;;;;;;4970962;28;20424;-75
2022/07/14 11:23:21;;;;;;;3.90;1.70;;;;;;;;;;4970129;28;20831;-75
2022/07/14 11:25:47;;;;;;;5.10;1.40;;;;;;;;;;4971062;28;20431;-74
2022/07/14 11:28:32;;;;;;;5.07;1.87;;;;;;;;;;4970976;28;20416;-74
2022/07/14 11:31:13;;;;;;;6.73;1.50;;;;;;;;;;4970942;28;20408;-75
2022/07/14 11:36:26;;;;;;;3.47;1.53;;;;;;;;;;4933611;28;20417;-74
2022/07/14 11:39:12;;;;;;;4.80;1.40;;;;;;;;;;4951465;29;20414;-76
2022/07/14 11:41:43;;;;;;;4.70;1.57;;;;;;;;;;4951504;29;20408;-75
2022/07/14 11:44:29;;;;;;;3.63;1.53;;;;;;;;;;4950953;28;20469;-75
2022/07/14 11:47:01;;;;;;;3.77;1.70;;;;;;;;;;4951400;29;20964;-75
2022/07/14 11:49:27;;;;;;;5.53;1.67;;;;;;;;;;4951378;28;20488;-75
2022/07/14 11:51:57;;;;;;;5.37;1.70;;;;;;;;;;4951702;28;20512;-75
2022/07/14 11:54:24;;;;;;;5.67;2.07;;;;;;;;;;4970259;28;20457;-75
2022/07/14 11:57:01;;;;;;;5.17;2.07;;;;;;;;;;4996485;28;20512;-74
2022/07/14 11:59:27;;;;;;;1.93;1.63;;;;;;;;;;4996326;28;20430;-75
2022/07/14 12:01:53;;;;;;;2.80;1.87;;;;;;;;;;4996287;28;20455;-76
2022/07/14 12:04:20;;;;;;;7.23;1.87;;;;;;;;;;4978384;28;20762;-76
2022/07/14 12:06:47;;;;;;;5.30;2.00;;;;;;;;;;4996093;28;20410;-76
2022/07/14 12:09:14;;;;;;;8.97;2.40;;;;;;;;;;4995890;28;20950;-76
2022/07/14 12:11:50;;;;;;;6.70;2.40;;;;;;;;;;4995978;28;20411;-75
2022/07/14 12:14:18;;;;;;;4.87;2.07;;;;;;;;;;4995627;28;20545;-76
2022/07/14 12:16:45;;;;;;;5.40;2.67;;;;;;;;;;4978387;28;20428;-75
2022/07/14 12:19:12;;;;;;;4.07;2.00;;;;;;;;;;4995813;28;20903;-75
2022/07/14 12:21:39;;;;;;;4.87;1.90;;;;;;;;;;4995525;28;20419;-76
2022/07/14 12:24:06;;;;;;;6.63;2.13;;;;;;;;;;4995279;28;20506;-75
2022/07/14 12:26:33;;;;;;;7.80;1.83;;;;;;;;;;4978230;28;20510;-75
2022/07/14 12:29:00;;;;;;;6.27;1.90;;;;;;;;;;4995579;28;20419;-76
2022/07/14 12:31:26;;;;;;;2.37;1.60;;;;;;;;;;4995416;28;20412;-75
2022/07/14 12:33:53;;;;;;;7.27;2.20;;;;;;;;;;4994795;28;20443;-76
2022/07/14 12:36:20;;;;;;;6.80;2.10;;;;;;;;;;4995483;28;20462;-75
2022/07/14 12:38:47;;;;;;;3.93;2.03;;;;;;;;;;4995352;28;20418;-75
2022/07/14 12:41:14;;;;;;;5.13;1.80;;;;;;;;;;4995564;28;20420;-75
2022/07/14 12:43:44;;;;;;;4.40;2.40;;;;;;;;;;4994708;28;20830;-75
2022/07/14 12:46:18;;;;;;;4.13;1.70;;;;;;;;;;4995492;28;20423;-75
2022/07/14 12:48:50;;;;;;;3.90;2.10;;;;;;;;;;4995408;28;20422;-75
2022/07/14 12:51:22;;;;;;;6.23;2.43;;;;;;;;;;4995384;28;20454;-75
2022/07/14 12:53:58;;;;;;;7.27;2.60;;;;;;;;;;5012983;28;20512;-74
2022/07/14 12:56:24;;;;;;;4.33;1.67;;;;;;;;;;5006733;28;20432;-74
2022/07/14 12:58:50;;;;;;;4.60;1.77;;;;;;;;;;5003124;28;20419;-74
2022/07/14 13:01:17;;;;;;;5.37;2.43;;;;;;;;;;5004754;28;20509;-75
2022/07/14 13:03:53;;;;;;;2.63;1.37;;;;;;;;;;5004369;28;20838;-75
2022/07/14 13:06:19;;;;;;;4.60;2.60;;;;;;;;;;5003438;28;20407;-74
2022/07/14 13:08:45;;;;;;;2.70;1.80;;;;;;;;;;5003635;28;20419;-74
2022/07/14 13:11:12;;;;;;;3.17;2.20;;;;;;;;;;5005060;28;20421;-74
2022/07/14 13:13:42;;;;;;;5.73;1.90;;;;;;;;;;5003499;28;20439;-74
2022/07/14 13:16:14;;;;;;;3.80;2.03;;;;;;;;;;5003130;28;20427;-74
2022/07/14 13:18:59;;;;;;;3.63;2.10;;;;;;;;;;5004045;28;20867;-73
2022/07/14 13:21:45;;;;;;;4.83;2.10;;;;;;;;;;5003592;28;20782;-74
2022/07/14 13:24:14;;;;;;;3.07;1.80;;;;;;;;;;5004382;28;20453;-74
2022/07/14 13:26:41;;;;;;;5.23;1.80;;;;;;;;;;5004117;28;20549;-73
2022/07/14 13:29:07;;;;;;;2.70;1.80;;;;;;;;;;5002720;28;20447;-74
2022/07/14 13:31:33;;;;;;;4.30;2.07;;;;;;;;;;5004674;28;20406;-74
2022/07/14 13:34:00;;;;;;;5.17;2.20;;;;;;;;;;5003298;28;20435;-74
2022/07/14 13:36:26;;;;;;;2.57;1.77;;;;;;;;;;5002708;28;20922;-74
2022/07/14 13:38:52;;;;;;;4.80;2.37;;;;;;;;;;5005277;28;20408;-73
2022/07/14 13:41:19;;;;;;;4.10;1.87;;;;;;;;;;5003657;28;20790;-74
2022/07/14 13:43:46;;;;;;;3.40;1.97;;;;;;;;;;5009632;28;20473;-73
2022/07/14 13:46:13;;;;;;;6.00;1.70;;;;;;;;;;5013649;28;20823;-73
2022/07/14 13:48:39;;;;;;;3.33;2.20;;;;;;;;;;5013454;28;20903;-74
2022/07/14 13:53:50;;;;;;;6.07;2.50;;;;;;;;;;4997305;28;20450;-74
2022/07/14 13:56:16;;;;;;;6.13;2.10;;;;;;;;;;4974636;28;20416;-73
2022/07/14 13:58:42;;;;;;;4.40;1.93;;;;;;;;;;4974493;28;20825;-73
2022/07/14 14:01:08;;;;;;;2.30;1.67;;;;;;;;;;4974563;28;20416;-74
2022/07/14 14:03:34;;;;;;;5.90;2.10;;;;;;;;;;4974090;28;20502;-73
2022/07/14 14:06:02;;;;;;;4.90;2.03;;;;;;;;;;4974662;28;20413;-73
2022/07/14 14:08:29;;;;;;;2.50;1.53;;;;;;;;;;4974526;28;20431;-73
2022/07/14 14:10:55;;;;;;;3.97;1.50;;;;;;;;;;4973107;28;20511;-73
2022/07/14 14:13:22;;;;;;;4.40;1.60;;;;;;;;;;4972781;28;20451;-74
2022/07/14 14:15:49;;;;;;;3.50;1.73;;;;;;;;;;4974279;28;20879;-74
2022/07/14 14:18:15;;;;;;;4.03;2.00;;;;;;;;;;4973907;28;20556;-73
2022/07/14 14:20:41;;;;;;;8.17;2.10;;;;;;;;;;4974114;28;20444;-76
2022/07/14 14:23:07;;;;;;;4.03;1.80;;;;;;;;;;4973670;28;20468;-74
2022/07/14 14:25:34;;;;;;;4.70;1.50;;;;;;;;;;4974304;28;20881;-72
2022/07/14 14:28:05;;;;;;;3.23;1.57;;;;;;;;;;4974194;28;20424;-73
2022/07/14 14:30:31;;;;;;;4.70;1.80;;;;;;;;;;4973957;28;20405;-73
2022/07/14 14:32:57;;;;;;;6.70;2.00;;;;;;;;;;4972439;28;20805;-73
2022/07/14 14:35:23;;;;;;;5.27;1.93;;;;;;;;;;4974225;28;20909;-73
2022/07/14 14:37:49;;;;;;;3.87;1.70;;;;;;;;;;4974134;28;20597;-73
2022/07/14 14:40:15;;;;;;;10.40;2.10;;;;;;;;;;4974016;28;20408;-74
2022/07/14 14:42:41;;;;;;;3.00;1.90;;;;;;;;;;4972154;28;20885;-74
2022/07/14 14:45:08;;;;;;;8.20;1.87;;;;;;;;;;4973982;28;20463;-74
2022/07/14 14:47:34;;;;;;;6.97;3.03;;;;;;;;;;4974077;28;20446;-73
2022/07/14 14:50:00;;;;;;;7.03;4.60;;;;;;;;;;4974132;28;20412;-74
2022/07/14 14:52:26;;;;;;;8.63;3.03;;;;;;;;;;4973609;28;20824;-74
2022/07/14 14:54:53;;;;;;;5.00;2.13;;;;;;;;;;4973710;28;20428;-73
2022/07/14 14:57:19;;;;;;;4.97;2.03;;;;;;;;;;4974047;28;20448;-75
2022/07/14 14:59:45;;;;;;;4.47;2.00;;;;;;;;;;4973784;28;20782;-73
2022/07/14 15:02:11;;;;;;;3.47;1.77;;;;;;;;;;4973811;28;20463;-73
2022/07/14 15:04:37;;;;;;;3.50;1.50;;;;;;;;;;4973515;28;20474;-73
2022/07/14 15:07:03;;;;;;;6.80;1.60;;;;;;;;;;4973772;28;20419;-75
2022/07/14 15:09:29;;;;;;;5.40;1.63;;;;;;;;;;4973942;28;20787;-76
2022/07/14 15:11:55;;;;;;;3.03;1.60;;;;;;;;;;4973895;28;20877;-72
2022/07/14 15:14:21;;;;;;;4.53;1.57;;;;;;;;;;4973400;28;20598;-72
2022/07/14 15:16:48;;;;;;;4.07;2.20;;;;;;;;;;4973640;28;20478;-77
2022/07/14 15:19:15;;;;;;;5.13;1.47;;;;;;;;;;4973664;28;20416;-73
2022/07/14 15:21:41;;;;;;;6.53;2.00;;;;;;;;;;4973832;28;20424;-75
2022/07/14 15:24:07;;;;;;;5.20;1.90;;;;;;;;;;4974392;28;20444;-75
2022/07/14 15:26:33;;;;;;;5.83;1.77;;;;;;;;;;4973625;28;20417;-74
2022/07/14 15:28:59;;;;;;;6.70;1.80;;;;;;;;;;4973331;28;20455;-75
2022/07/14 15:31:26;;;;;;;2.60;1.60;;;;;;;;;;4975974;28;20975;-75
2022/07/14 15:33:53;;;;;;;4.83;1.60;;;;;;;;;;4976989;28;20879;-75
2022/07/14 15:36:19;;;;;;;4.43;2.20;;;;;;;;;;4977175;28;20416;-76
2022/07/14 15:41:32;;;;;;;7.03;1.87;;;;;;;;;;4977368;28;20415;-72
2022/07/14 15:43:58;;;;;;;4.83;1.90;;;;;;;;;;4976800;28;20907;-76
2022/07/14 15:46:25;;;;;;;11.43;1.90;;;;;;;;;;4977073;28;20417;-73
2022/07/14 15:48:51;;;;;;;5.70;1.70;;;;;;;;;;4976977;28;20420;-74
2022/07/14 15:51:18;;;;;;;4.33;1.93;;;;;;;;;;4977786;28;20503;-73
2022/07/14 15:53:44;;;;;;;6.43;1.70;;;;;;;;;;4981672;28;21014;-76
2022/07/14 15:56:12;;;;;;;4.50;2.00;;;;;;;;;;4976775;28;20439;-72
2022/07/14 15:58:38;;;;;;;6.90;1.50;;;;;;;;;;4976859;28;20503;-74
2022/07/14 16:01:04;;;;;;;3.80;1.70;;;;;;;;;;4976834;28;20552;-75
2022/07/14 16:03:30;;;;;;;6.93;2.13;;;;;;;;;;4976120;28;20471;-73
2022/07/14 16:05:56;;;;;;;4.40;2.00;;;;;;;;;;4976625;28;20755;-73
2022/07/14 16:08:22;;;;;;;2.87;1.60;;;;;;;;;;4975249;28;20467;-73
2022/07/14 16:10:48;;;;;;;4.87;1.70;;;;;;;;;;4976669;28;20471;-75
2022/07/14 16:13:14;;;;;;;11.10;2.30;;;;;;;;;;4976080;28;20475;-74
2022/07/14 16:15:40;;;;;;;4.37;1.70;;;;;;;;;;4976489;28;20897;-73
2022/07/14 16:18:06;;;;;;;3.43;1.40;;;;;;;;;;4976299;28;20421;-75
2022/07/14 16:20:33;;;;;;;3.17;1.40;;;;;;;;;;4976087;28;20416;-74
2022/07/14 16:22:59;;;;;;;5.37;2.00;;;;;;;;;;4975523;28;20989;-75
2022/07/14 16:25:25;;;;;;;4.40;1.70;;;;;;;;;;4976105;28;20459;-75
2022/07/14 16:27:52;;;;;;;6.27;1.70;;;;;;;;;;4976161;28;20443;-74
2022/07/14 16:30:19;;;;;;;3.20;1.67;;;;;;;;;;4976226;28;20923;-74
2022/07/14 16:32:45;;;;;;;3.97;1.90;;;;;;;;;;4975732;28;20435;-74
2022/07/14 16:35:12;;;;;;;4.20;1.93;;;;;;;;;;4976014;28;20468;-74
2022/07/14 16:37:38;;;;;;;2.67;1.83;;;;;;;;;;4975905;28;20423;-74
2022/07/14 16:40:06;;;;;;;4.23;1.97;;;;;;;;;;4976101;28;20417;-74
2022/07/14 16:42:33;;;;;;;4.30;1.97;;;;;;;;;;4975551;28;20463;-74
2022/07/14 16:44:58;;;;;;;5.83;2.00;;;;;;;;;;4976012;28;20488;-74
2022/07/14 16:47:25;;;;;;;5.13;1.80;;;;;;;;;;4975850;28;20424;-75
2022/07/14 16:49:51;;;;;;;3.17;1.60;;;;;;;;;;4975849;28;20409;-74
2022/07/14 16:52:18;;;;;;;4.10;2.27;;;;;;;;;;4975405;28;20427;-77
2022/07/14 16:54:44;;;;;;;4.47;1.87;;;;;;;;;;4975878;28;20432;-74
2022/07/14 16:57:10;;;;;;;3.03;1.47;;;;;;;;;;4975845;28;20416;-74
2022/07/14 16:59:36;;;;;;;7.03;2.00;;;;;;;;;;4975818;28;20926;-75
2022/07/14 17:02:02;;;;;;;3.57;1.57;;;;;;;;;;4975127;28;20468;-74
2022/07/14 17:04:28;;;;;;;3.23;1.40;;;;;;;;;;4975318;28;20436;-75
2022/07/14 17:06:54;;;;;;;4.00;1.70;;;;;;;;;;4974568;28;20472;-74
2022/07/14 17:09:20;;;;;;;6.30;1.70;;;;;;;;;;4967241;28;20775;-74
2022/07/14 17:11:47;;;;;;;2.23;1.27;;;;;;;;;;4965542;28;20834;-75
2022/07/14 17:14:13;;;;;;;7.67;2.20;;;;;;;;;;4966614;28;20444;-74
2022/07/14 17:16:39;;;;;;;3.37;1.60;;;;;;;;;;4964459;28;20966;-75
2022/07/14 17:19:06;;;;;;;4.03;1.80;;;;;;;;;;4964465;28;20495;-75
2022/07/14 17:21:32;;;;;;;3.70;1.70;;;;;;;;;;4972716;28;20419;-75
2022/07/14 17:23:58;;;;;;;4.00;1.67;;;;;;;;;;4969132;28;20901;-75
2022/07/14 17:26:24;;;;;;;4.30;2.10;;;;;;;;;;4960332;28;20464;-75
2022/07/14 17:28:50;;;;;;;4.50;1.70;;;;;;;;;;4965329;28;20429;-74
2022/07/14 17:31:16;;;;;;;2.93;1.60;;;;;;;;;;4966566;28;20420;-74
2022/07/14 17:33:42;;;;;;;7.23;1.87;;;;;;;;;;4955801;28;20433;-75
2022/07/14 17:36:09;;;;;;;3.27;1.50;;;;;;;;;;4956034;28;20432;-75
2022/07/14 17:38:35;;;;;;;3.57;1.60;;;;;;;;;;4961050;28;20461;-75
2022/07/14 17:41:02;;;;;;;5.50;2.10;;;;;;;;;;4955805;28;20500;-75
2022/07/14 17:43:29;;;;;;;3.40;1.50;;;;;;;;;;4954007;28;20483;-75
2022/07/14 17:45:56;;;;;;;3.33;1.60;;;;;;;;;;4954238;28;20926;-75
2022/07/14 17:48:22;;;;;;;6.57;1.80;;;;;;;;;;4955421;28;20767;-75
2022/07/14 17:50:48;;;;;;;9.50;2.40;;;;;;;;;;4955557;28;20414;-75
2022/07/14 17:53:15;;;;;;;1.80;1.40;;;;;;;;;;4954629;28;20449;-75
2022/07/14 17:55:41;;;;;;;6.17;1.43;;;;;;;;;;4955503;28;20432;-75
2022/07/14 17:58:07;;;;;;;4.23;2.10;;;;;;;;;;4955154;28;20867;-75
2022/07/14 18:00:34;;;;;;;4.93;1.63;;;;;;;;;;4955296;28;20452;-75
2022/07/14 18:03:00;;;;;;;1.97;1.53;;;;;;;;;;4954570;28;20467;-74
2022/07/14 18:05:26;;;;;;;4.70;1.73;;;;;;;;;;4955479;28;20414;-75
2022/07/14 18:07:53;;;;;;;5.03;1.70;;;;;;;;;;4954091;28;20439;-74
2022/07/14 18:10:20;;;;;;;2.33;1.20;;;;;;;;;;4955254;28;20401;-75
2022/07/14 18:12:46;;;;;;;2.77;1.43;;;;;;;;;;4954732;28;20468;-74
2022/07/14 18:15:12;;;;;;;3.53;2.23;;;;;;;;;;4955251;28;20417;-75
2022/07/14 18:17:39;;;;;;;4.07;2.00;;;;;;;;;;4955073;28;20782;-75
2022/07/14 18:20:09;;;;;;;5.70;1.53;;;;;;;;;;4955054;28;20413;-76
2022/07/14 18:22:38;;;;;;;6.93;1.50;;;;;;;;;;4954484;28;20476;-76
2022/07/14 18:25:08;;;;;;;11.10;1.23;;;;;;;;;;4954812;28;20417;-75
2022/07/14 18:27:34;;;;;;;2.60;1.20;;;;;;;;;;4954810;28;20416;-75
2022/07/14 18:30:00;;;;;;;5.37;1.60;;;;;;;;;;4954718;28;20412;-75
2022/07/14 18:32:27;;;;;;;4.27;1.70;;;;;;;;;;4954193;28;20504;-75
2022/07/14 18:34:53;;;;;;;4.87;2.37;;;;;;;;;;4954807;28;20504;-76
2022/07/14 18:37:19;;;;;;;5.73;2.20;;;;;;;;;;4954816;28;20455;-74
2022/07/14 18:39:45;;;;;;;3.47;1.70;;;;;;;;;;4954695;28;20417;-75
2022/07/14 18:42:11;;;;;;;4.40;1.37;;;;;;;;;;4954433;28;20472;-75
2022/07/14 18:47:22;;;;;;;2.40;1.50;;;;;;;;;;4954812;29;20408;-76
2022/07/14 18:49:49;;;;;;;4.73;1.90;;;;;;;;;;4954562;28;20409;-75
2022/07/14 18:52:16;;;;;;;3.23;1.50;;;;;;;;;;4954412;28;20735;-75
2022/07/14 18:54:42;;;;;;;2.60;1.50;;;;;;;;;;4954409;28;20456;-75
2022/07/14 18:57:08;;;;;;;4.50;1.30;;;;;;;;;;4954618;28;20766;-74
2022/07/14 18:59:34;;;;;;;2.07;1.70;;;;;;;;;;4954562;28;20764;-75
2022/07/14 19:02:00;;;;;;;2.67;1.60;;;;;;;;;;4954689;28;20507;-75
2022/07/14 19:04:26;;;;;;;4.80;1.67;;;;;;;;;;4955974;28;20488;-75
2022/07/14 19:06:52;;;;;;;4.77;1.90;;;;;;;;;;4958469;28;20417;-74
2022/07/14 19:09:18;;;;;;;4.27;1.77;;;;;;;;;;4958436;28;20789;-74
2022/07/14 19:11:44;;;;;;;6.60;1.90;;;;;;;;;;4958428;28;20459;-75
2022/07/14 19:14:10;;;;;;;3.00;1.63;;;;;;;;;;4958513;28;20433;-74
2022/07/14 19:16:36;;;;;;;4.60;1.70;;;;;;;;;;4958880;28;20909;-74
2022/07/14 19:19:02;;;;;;;7.73;1.97;;;;;;;;;;4958378;28;20413;-76
2022/07/14 19:21:28;;;;;;;2.17;1.10;;;;;;;;;;4959889;28;20428;-77
2022/07/14 19:23:54;;;;;;;5.20;1.67;;;;;;;;;;4958154;28;20477;-77
2022/07/14 19:26:21;;;;;;;7.20;1.80;;;;;;;;;;4958611;28;20438;-76
2022/07/14 19:28:47;;;;;;;4.07;1.40;;;;;;;;;;4961532;28;20413;-77
2022/07/14 19:31:13;;;;;;;2.87;1.67;;;;;;;;;;4958501;28;20420;-77
2022/07/14 19:33:40;;;;;;;3.73;1.60;;;;;;;;;;4958185;28;20520;-77
2022/07/14 19:36:07;;;;;;;4.13;2.00;;;;;;;;;;4958444;28;20421;-77
2022/07/14 19:38:33;;;;;;;4.67;1.90;;;;;;;;;;4958037;28;20488;-77
2022/07/14 19:40:59;;;;;;;3.13;1.90;;;;;;;;;;4957872;28;20416;-78
2022/07/14 19:43:25;;;;;;;4.60;1.73;;;;;;;;;;4958923;28;20546;-77
2022/07/14 19:45:51;;;;;;;5.13;1.80;;;;;;;;;;4957406;29;20420;-78
2022/07/14 19:48:17;;;;;;;6.27;1.70;;;;;;;;;;4958763;28;20844;-77
2022/07/14 19:50:44;;;;;;;3.60;1.60;;;;;;;;;;4959143;28;20417;-77
2022/07/14 19:53:10;;;;;;;3.93;1.70;;;;;;;;;;4958409;28;20508;-77
2022/07/14 19:55:36;;;;;;;2.87;1.90;;;;;;;;;;4959060;28;20511;-77
2022/07/14 19:58:04;;;;;;;2.87;1.40;;;;;;;;;;4957158;29;20832;-77
2022/07/14 20:00:30;;;;;;;8.80;1.80;;;;;;;;;;4958134;28;20429;-77
2022/07/14 20:02:56;;;;;;;3.50;1.70;;;;;;;;;;4957803;28;20556;-77
2022/07/14 20:05:22;;;;;;;3.77;1.63;;;;;;;;;;4958068;28;20428;-77
2022/07/14 20:07:48;;;;;;;4.03;2.23;;;;;;;;;;4957955;28;20429;-77
2022/07/14 20:10:15;;;;;;;5.50;1.77;;;;;;;;;;4957277;28;20420;-77
2022/07/14 20:12:41;;;;;;;5.70;2.20;;;;;;;;;;4957926;28;20545;-77
2022/07/14 20:15:08;;;;;;;10.23;2.10;;;;;;;;;;4957628;28;20978;-78